createdAt,value
2017-09-26T00:02:22.546Z,31.27
2017-09-26T00:04:48.779Z,15.57
2017-09-26T00:07:15.347Z,22.60
2017-09-26T00:09:41.588Z,14.57
2017-09-26T00:12:08.571Z,16.73
2017-09-26T00:14:49.690Z,15.20
2017-09-26T00:17:15.939Z,20.10
2017-09-26T00:19:42.165Z,18.30
2017-09-26T00:22:09.546Z,15.50
2017-09-26T00:24:35.805Z,15.83
2017-09-26T00:27:02.126Z,17.87
2017-09-26T00:29:28.740Z,19.73
2017-09-26T00:31:54.962Z,16.50
2017-09-26T00:34:22.055Z,15.20
2017-09-26T00:36:48.710Z,13.67
2017-09-26T00:39:15.003Z,16.40
2017-09-26T00:41:41.271Z,16.40
2017-09-26T00:44:07.932Z,14.50
2017-09-26T00:46:34.830Z,14.20
2017-09-26T00:49:00.994Z,11.90
2017-09-26T00:51:27.561Z,16.33
2017-09-26T00:53:54.547Z,14.27
2017-09-26T00:56:20.808Z,13.70
2017-09-26T00:58:47.386Z,14.03
2017-09-26T01:01:30.287Z,13.10
2017-09-26T01:04:00.615Z,12.83
2017-09-26T01:06:42.513Z,15.17
2017-09-26T01:09:09.196Z,13.27
2017-09-26T01:11:35.394Z,14.30
2017-09-26T01:14:01.563Z,16.43
2017-09-26T01:16:28.310Z,21.30
2017-09-26T01:18:54.546Z,23.23
2017-09-26T01:21:21.615Z,17.00
2017-09-26T01:23:48.217Z,13.93
2017-09-26T01:26:14.462Z,12.70
2017-09-26T01:28:40.639Z,16.07
2017-09-26T01:31:07.348Z,16.37
2017-09-26T01:33:33.613Z,16.43
2017-09-26T01:35:59.910Z,16.47
2017-09-26T01:38:26.657Z,13.90
2017-09-26T01:41:05.099Z,17.13
2017-09-26T01:43:31.774Z,19.20
2017-09-26T01:45:57.989Z,13.70
2017-09-26T01:48:24.330Z,17.90
2017-09-26T01:50:51.006Z,15.37
2017-09-26T01:53:17.250Z,14.07
2017-09-26T01:55:43.498Z,13.80
2017-09-26T01:58:10.173Z,13.57
2017-09-26T02:00:36.412Z,19.50
2017-09-26T02:03:03.377Z,15.47
2017-09-26T02:05:29.975Z,16.60
2017-09-26T02:07:56.233Z,19.70
2017-09-26T02:10:23.179Z,17.43
2017-09-26T02:12:50.504Z,13.57
2017-09-26T02:15:16.716Z,14.40
2017-09-26T02:17:42.975Z,19.40
2017-09-26T02:20:10.284Z,14.90
2017-09-26T02:22:36.561Z,16.03
2017-09-26T02:25:03.546Z,16.23
2017-09-26T02:27:30.193Z,20.20
2017-09-26T02:29:56.462Z,15.20
2017-09-26T02:32:22.710Z,11.87
2017-09-26T02:34:50.082Z,16.40
2017-09-26T02:37:16.343Z,14.73
2017-09-26T02:39:42.548Z,13.63
2017-09-26T02:42:09.180Z,12.97
2017-09-26T02:44:35.400Z,14.97
2017-09-26T02:47:02.387Z,15.47
2017-09-26T02:49:28.947Z,16.03
2017-09-26T02:51:55.219Z,17.53
2017-09-26T02:54:21.489Z,13.77
2017-09-26T02:56:48.185Z,12.10
2017-09-26T02:59:14.440Z,15.10
2017-09-26T03:01:40.670Z,14.23
2017-09-26T03:04:07.377Z,14.10
2017-09-26T03:06:33.619Z,12.73
2017-09-26T03:08:59.822Z,12.27
2017-09-26T03:11:27.185Z,21.50
2017-09-26T03:13:53.449Z,13.37
2017-09-26T03:16:19.704Z,18.60
2017-09-26T03:18:46.210Z,14.93
2017-09-26T03:21:12.528Z,11.63
2017-09-26T03:23:38.803Z,20.57
2017-09-26T03:26:05.489Z,22.30
2017-09-26T03:28:31.742Z,14.10
2017-09-26T03:30:58.069Z,16.23
2017-09-26T03:33:24.373Z,19.03
2017-09-26T03:35:50.647Z,11.23
2017-09-26T03:38:16.967Z,15.80
2017-09-26T03:40:43.254Z,12.03
2017-09-26T03:43:10.219Z,13.93
2017-09-26T03:45:36.519Z,15.27
2017-09-26T03:48:03.530Z,12.57
2017-09-26T03:50:29.738Z,12.37
2017-09-26T03:52:55.979Z,14.10
2017-09-26T03:55:22.245Z,14.57
2017-09-26T03:57:48.514Z,10.93
2017-09-26T04:00:14.866Z,13.83
2017-09-26T04:02:41.481Z,11.77
2017-09-26T04:05:07.770Z,14.23
2017-09-26T04:07:34.813Z,13.60
2017-09-26T04:10:01.089Z,20.43
2017-09-26T04:12:27.386Z,16.73
2017-09-26T04:14:54.427Z,13.10
2017-09-26T04:17:21.438Z,27.03
2017-09-26T04:19:47.699Z,13.07
2017-09-26T04:22:13.986Z,18.33
2017-09-26T04:24:40.269Z,24.23
2017-09-26T04:27:07.326Z,19.37
2017-09-26T04:29:34.362Z,10.50
2017-09-26T04:32:01.029Z,15.03
2017-09-26T04:34:27.300Z,13.50
2017-09-26T04:36:53.616Z,17.03
2017-09-26T04:39:19.890Z,13.90
2017-09-26T04:41:46.087Z,14.40
2017-09-26T04:44:12.313Z,13.47
2017-09-26T04:46:38.553Z,12.83
2017-09-26T04:49:04.783Z,11.10
2017-09-26T04:51:30.980Z,13.80
2017-09-26T04:53:57.219Z,12.93
2017-09-26T04:56:23.484Z,11.33
2017-09-26T04:58:50.528Z,14.77
2017-09-26T05:01:17.549Z,12.93
2017-09-26T05:03:43.850Z,14.10
2017-09-26T05:06:10.105Z,14.87
2017-09-26T05:08:36.407Z,17.13
2017-09-26T05:11:02.697Z,17.60
2017-09-26T05:13:29.639Z,15.07
2017-09-26T05:15:55.918Z,14.00
2017-09-26T05:18:22.277Z,12.93
2017-09-26T05:20:48.538Z,15.13
2017-09-26T05:23:15.923Z,14.73
2017-09-26T05:25:42.171Z,12.60
2017-09-26T05:28:08.358Z,12.77
2017-09-26T05:30:35.362Z,15.43
2017-09-26T05:33:01.649Z,14.33
2017-09-26T05:35:27.880Z,30.00
2017-09-26T05:37:54.118Z,17.10
2017-09-26T05:40:20.406Z,12.50
2017-09-26T05:42:46.676Z,14.50
2017-09-26T05:45:12.983Z,16.53
2017-09-26T05:47:39.250Z,22.10
2017-09-26T05:50:05.491Z,20.87
2017-09-26T05:52:31.731Z,12.13
2017-09-26T05:54:57.982Z,16.43
2017-09-26T05:57:25.956Z,26.73
2017-09-26T05:59:53.481Z,17.20
2017-09-26T06:02:20.451Z,17.90
2017-09-26T06:04:46.680Z,15.03
2017-09-26T06:07:13.348Z,17.60
2017-09-26T06:09:39.593Z,22.20
2017-09-26T06:12:05.842Z,21.63
2017-09-26T06:14:32.145Z,18.60
2017-09-26T06:16:58.429Z,18.63
2017-09-26T06:19:24.714Z,19.03
2017-09-26T06:21:50.983Z,16.93
2017-09-26T06:24:17.362Z,15.83
2017-09-26T06:26:43.667Z,30.07
2017-09-26T06:29:11.010Z,24.40
2017-09-26T06:31:37.313Z,17.70
2017-09-26T06:34:03.520Z,21.60
2017-09-26T06:36:29.855Z,22.10
2017-09-26T06:38:56.148Z,18.60
2017-09-26T06:41:23.180Z,22.47
2017-09-26T06:43:50.233Z,26.57
2017-09-26T06:46:17.231Z,22.23
2017-09-26T06:48:43.447Z,32.33
2017-09-26T06:51:10.061Z,19.30
2017-09-26T06:53:36.297Z,26.87
2017-09-26T06:56:02.558Z,17.00
2017-09-26T06:58:28.844Z,14.00
2017-09-26T07:00:55.762Z,16.03
2017-09-26T07:03:22.002Z,19.43
2017-09-26T07:05:49.389Z,14.90
2017-09-26T07:08:15.658Z,19.57
2017-09-26T07:10:41.890Z,19.30
2017-09-26T07:13:08.187Z,25.40
2017-09-26T07:15:34.449Z,21.77
2017-09-26T07:18:00.713Z,29.97
2017-09-26T07:20:28.095Z,27.17
2017-09-26T07:22:54.334Z,24.53
2017-09-26T07:25:20.618Z,25.27
2017-09-26T07:27:48.009Z,28.80
2017-09-26T07:30:14.247Z,28.80
2017-09-26T07:32:40.580Z,28.53
2017-09-26T07:35:07.203Z,33.00
2017-09-26T07:37:33.519Z,26.93
2017-09-26T07:39:59.763Z,26.37
2017-09-26T07:42:26.394Z,30.80
2017-09-26T07:44:52.657Z,37.93
2017-09-26T07:47:18.903Z,30.73
2017-09-26T07:49:45.599Z,32.03
2017-09-26T07:52:11.875Z,41.27
2017-09-26T07:54:38.902Z,34.50
2017-09-26T07:57:05.210Z,33.70
2017-09-26T07:59:31.440Z,33.93
2017-09-26T08:01:59.095Z,30.80
2017-09-26T08:04:26.868Z,33.63
2017-09-26T08:06:54.399Z,39.20
2017-09-26T08:09:22.671Z,32.97
2017-09-26T08:11:49.623Z,32.40
2017-09-26T08:14:16.609Z,30.40
2017-09-26T08:16:42.790Z,33.03
2017-09-26T08:19:09.762Z,33.70
2017-09-26T08:21:35.997Z,35.20
2017-09-26T08:24:02.223Z,31.57
2017-09-26T08:26:28.503Z,32.97
2017-09-26T08:28:54.749Z,34.40
2017-09-26T08:31:21.756Z,33.67
2017-09-26T08:33:48.011Z,29.40
2017-09-26T08:36:14.282Z,37.80
2017-09-26T08:38:40.530Z,35.87
2017-09-26T08:41:06.826Z,31.70
2017-09-26T08:43:33.052Z,28.97
2017-09-26T08:45:59.995Z,26.83
2017-09-26T08:48:27.066Z,27.70
2017-09-26T08:50:53.298Z,24.30
2017-09-26T08:53:19.534Z,31.87
2017-09-26T08:55:45.759Z,27.77
2017-09-26T08:58:12.101Z,26.53
2017-09-26T09:00:38.385Z,25.20
2017-09-26T09:03:05.401Z,28.20
2017-09-26T09:05:31.674Z,23.37
2017-09-26T09:07:57.943Z,25.53
2017-09-26T09:10:24.692Z,25.80
2017-09-26T09:12:51.012Z,25.67
2017-09-26T09:15:17.246Z,26.57
2017-09-26T09:17:43.560Z,24.20
2017-09-26T09:20:09.860Z,29.10
2017-09-26T09:22:36.178Z,29.23
2017-09-26T09:25:03.195Z,24.20
2017-09-26T09:27:29.542Z,21.67
2017-09-26T09:29:55.814Z,21.37
2017-09-26T09:32:22.149Z,22.13
2017-09-26T09:34:48.445Z,18.93
2017-09-26T09:37:15.477Z,19.90
2017-09-26T09:39:41.797Z,23.90
2017-09-26T09:42:08.107Z,23.27
2017-09-26T09:44:34.402Z,17.73
2017-09-26T09:47:00.752Z,20.23
2017-09-26T09:49:27.063Z,18.20
2017-09-26T09:51:53.421Z,18.60
2017-09-26T09:54:20.154Z,19.77
2017-09-26T09:56:46.478Z,19.80
2017-09-26T09:59:12.789Z,18.70
2017-09-26T10:01:39.117Z,20.67
2017-09-26T10:04:06.213Z,19.17
2017-09-26T10:06:32.497Z,17.90
2017-09-26T10:08:59.831Z,18.40
2017-09-26T10:11:26.877Z,22.23
2017-09-26T10:13:53.890Z,17.47
2017-09-26T10:16:20.144Z,18.50
2017-09-26T10:18:46.532Z,19.10
2017-09-26T10:21:12.892Z,17.07
2017-09-26T10:23:39.645Z,15.70
2017-09-26T10:26:05.993Z,17.37
2017-09-26T10:28:32.312Z,15.60
2017-09-26T10:30:59.064Z,21.30
2017-09-26T10:33:26.139Z,14.10
2017-09-26T10:35:52.429Z,15.23
2017-09-26T10:38:19.116Z,14.37
2017-09-26T10:40:45.445Z,16.20
2017-09-26T10:43:11.743Z,14.80
2017-09-26T10:45:38.831Z,17.90
2017-09-26T10:48:05.138Z,15.80
2017-09-26T10:50:31.462Z,15.17
2017-09-26T10:52:58.639Z,14.17
2017-09-26T10:55:24.962Z,25.87
2017-09-26T10:57:51.240Z,16.07
2017-09-26T11:00:17.612Z,13.30
2017-09-26T11:02:43.890Z,14.40
2017-09-26T11:05:10.215Z,22.03
2017-09-26T11:07:36.506Z,20.33
2017-09-26T11:10:02.768Z,14.00
2017-09-26T11:12:29.074Z,16.40
2017-09-26T11:14:55.393Z,14.33
2017-09-26T11:17:21.654Z,15.00
2017-09-26T11:19:48.063Z,14.23
2017-09-26T11:22:14.427Z,15.77
2017-09-26T11:24:40.705Z,12.47
2017-09-26T11:27:07.669Z,20.30
2017-09-26T11:29:33.935Z,12.57
2017-09-26T11:32:00.222Z,13.77
2017-09-26T11:34:27.222Z,13.27
2017-09-26T11:36:53.609Z,16.77
2017-09-26T11:39:19.879Z,13.00
2017-09-26T11:41:46.432Z,16.00
2017-09-26T11:44:12.754Z,19.17
2017-09-26T11:46:39.778Z,15.53
2017-09-26T11:49:06.058Z,16.00
2017-09-26T11:51:33.104Z,14.20
2017-09-26T11:54:00.075Z,17.60
2017-09-26T11:56:26.337Z,13.00
2017-09-26T11:58:52.630Z,13.30
2017-09-26T12:01:19.992Z,12.57
2017-09-26T12:03:46.284Z,15.93
2017-09-26T12:06:13.005Z,14.87
2017-09-26T12:08:39.523Z,17.20
2017-09-26T12:11:05.782Z,12.60
2017-09-26T12:13:38.456Z,12.63
2017-09-26T12:16:04.797Z,30.50
2017-09-26T12:18:31.797Z,14.17
2017-09-26T12:20:58.113Z,18.67
2017-09-26T12:23:24.380Z,18.30
2017-09-26T12:25:50.710Z,17.03
2017-09-26T12:28:17.022Z,12.57
2017-09-26T12:30:43.286Z,11.03
2017-09-26T12:33:09.650Z,12.40
2017-09-26T12:35:36.014Z,15.37
2017-09-26T12:38:02.323Z,11.80
2017-09-26T12:40:28.700Z,12.33
2017-09-26T12:42:55.000Z,14.00
2017-09-26T12:45:21.242Z,11.97
2017-09-26T12:47:47.497Z,11.37
2017-09-26T12:50:14.241Z,11.67
2017-09-26T12:52:40.536Z,10.23
2017-09-26T12:55:06.816Z,12.07
2017-09-26T12:57:33.834Z,12.20
2017-09-26T13:00:00.133Z,13.60
2017-09-26T13:02:26.427Z,11.50
2017-09-26T13:04:53.479Z,10.53
2017-09-26T13:07:20.501Z,13.77
2017-09-26T13:09:46.810Z,11.10
2017-09-26T13:12:13.198Z,8.97
2017-09-26T13:14:40.383Z,10.50
2017-09-26T13:17:06.684Z,10.87
2017-09-26T13:19:32.999Z,14.67
2017-09-26T13:22:00.080Z,16.17
2017-09-26T13:24:26.433Z,9.90
2017-09-26T13:26:52.768Z,9.00
2017-09-26T13:29:19.291Z,9.73
2017-09-26T13:31:45.641Z,11.27
2017-09-26T13:34:12.240Z,13.63
2017-09-26T13:36:38.611Z,18.10
2017-09-26T13:39:04.886Z,14.80
2017-09-26T13:41:31.913Z,11.57
2017-09-26T13:43:58.968Z,12.77
2017-09-26T13:46:26.037Z,10.37
2017-09-26T13:48:52.555Z,9.70
2017-09-26T13:51:19.637Z,10.40
2017-09-26T13:53:45.951Z,10.50
2017-09-26T13:56:12.306Z,9.70
2017-09-26T13:58:38.590Z,10.37
2017-09-26T14:01:05.641Z,27.00
2017-09-26T14:03:32.669Z,10.43
2017-09-26T14:05:58.984Z,9.90
2017-09-26T14:08:25.352Z,9.07
2017-09-26T14:10:52.424Z,9.00
2017-09-26T14:13:18.876Z,10.67
2017-09-26T14:15:45.157Z,11.33
2017-09-26T14:18:12.185Z,10.07
2017-09-26T14:20:38.460Z,9.43
2017-09-26T14:23:04.914Z,10.60
2017-09-26T14:25:31.186Z,9.80
2017-09-26T14:27:57.552Z,9.20
2017-09-26T14:30:23.810Z,8.47
2017-09-26T14:32:50.448Z,8.57
2017-09-26T14:35:16.732Z,10.63
2017-09-26T14:37:43.772Z,8.20
2017-09-26T14:40:10.867Z,8.50
2017-09-26T14:42:37.195Z,9.93
2017-09-26T14:45:03.565Z,11.93
2017-09-26T14:47:29.922Z,11.63
2017-09-26T14:49:56.966Z,10.03
2017-09-26T14:52:24.036Z,22.90
2017-09-26T14:54:50.293Z,13.00
2017-09-26T14:57:16.595Z,12.83
2017-09-26T14:59:42.845Z,9.47
2017-09-26T15:02:09.082Z,15.43
2017-09-26T15:04:35.351Z,9.80
2017-09-26T15:07:01.643Z,13.97
2017-09-26T15:09:28.012Z,9.30
2017-09-26T15:11:55.038Z,8.97
2017-09-26T15:14:21.337Z,16.67
2017-09-26T15:16:47.645Z,9.70
2017-09-26T15:19:13.918Z,9.33
2017-09-26T15:21:40.641Z,11.50
2017-09-26T15:24:06.926Z,13.17
2017-09-26T15:26:33.981Z,11.10
2017-09-26T15:29:00.997Z,15.77
2017-09-26T15:31:27.277Z,12.00
2017-09-26T15:33:53.930Z,13.20
2017-09-26T15:36:20.178Z,8.63
2017-09-26T15:38:46.519Z,9.57
2017-09-26T15:41:12.920Z,8.70
2017-09-26T15:43:39.241Z,13.70
2017-09-26T15:46:05.521Z,13.30
2017-09-26T15:48:31.821Z,10.03
2017-09-26T15:50:58.086Z,17.47
2017-09-26T15:53:24.421Z,12.80
2017-09-26T15:55:50.800Z,11.70
2017-09-26T15:58:17.580Z,8.40
2017-09-26T16:00:43.912Z,9.63
2017-09-26T16:03:10.213Z,9.23
2017-09-26T16:05:36.876Z,10.37
2017-09-26T16:08:03.189Z,11.50
2017-09-26T16:10:29.531Z,11.10
2017-09-26T16:12:56.237Z,10.20
2017-09-26T16:15:22.495Z,9.00
2017-09-26T16:17:48.843Z,12.33
2017-09-26T16:20:15.455Z,18.73
2017-09-26T16:22:41.754Z,36.97
2017-09-26T16:25:08.048Z,29.67
2017-09-26T16:27:34.403Z,10.30
2017-09-26T16:30:01.456Z,12.63
2017-09-26T16:32:27.741Z,14.23
2017-09-26T16:34:54.106Z,10.93
2017-09-26T16:37:21.147Z,11.03
2017-09-26T16:39:48.236Z,12.33
2017-09-26T16:42:14.556Z,11.57
2017-09-26T16:44:40.888Z,13.03
2017-09-26T16:47:07.188Z,15.40
2017-09-26T16:49:34.583Z,9.73
2017-09-26T16:52:00.870Z,10.97
2017-09-26T16:54:27.095Z,14.73
2017-09-26T16:56:53.386Z,12.10
2017-09-26T16:59:19.717Z,10.17
2017-09-26T17:01:46.091Z,9.83
2017-09-26T17:04:12.406Z,16.10
2017-09-26T17:06:38.770Z,19.30
2017-09-26T17:09:05.960Z,13.73
2017-09-26T17:11:32.461Z,9.20
2017-09-26T17:13:58.772Z,16.90
2017-09-26T17:16:25.830Z,16.90
2017-09-26T17:18:52.972Z,21.43
2017-09-26T17:21:20.067Z,15.13
2017-09-26T17:23:46.380Z,12.27
2017-09-26T17:26:12.754Z,14.00
2017-09-26T17:28:39.005Z,12.00
2017-09-26T17:31:05.332Z,10.73
2017-09-26T17:33:31.614Z,29.23
2017-09-26T17:35:57.920Z,11.90
2017-09-26T17:38:24.253Z,16.97
2017-09-26T17:40:50.521Z,12.87
2017-09-26T17:43:16.867Z,17.03
2017-09-26T17:45:43.133Z,15.60
2017-09-26T17:48:10.188Z,18.70
2017-09-26T17:50:37.230Z,22.23
2017-09-26T17:53:03.545Z,16.27
2017-09-26T17:55:29.913Z,13.70
2017-09-26T17:57:56.269Z,26.03
2017-09-26T18:00:22.638Z,16.03
2017-09-26T18:02:49.849Z,21.40
2017-09-26T18:05:16.169Z,15.40
2017-09-26T18:07:42.501Z,17.00
2017-09-26T18:10:08.823Z,18.63
2017-09-26T18:12:35.148Z,14.47
2017-09-26T18:15:01.476Z,17.27
2017-09-26T18:17:27.786Z,15.10
2017-09-26T18:19:54.794Z,14.97
2017-09-26T18:22:21.092Z,19.37
2017-09-26T18:24:47.480Z,26.50
2017-09-26T18:27:14.477Z,20.10
2017-09-26T18:29:40.714Z,21.00
2017-09-26T18:32:07.380Z,16.73
2017-09-26T18:34:33.751Z,17.97
2017-09-26T18:37:00.818Z,21.43
2017-09-26T18:39:28.518Z,18.60
2017-09-26T18:41:54.789Z,28.97
2017-09-26T18:44:21.783Z,21.70
2017-09-26T18:46:48.451Z,25.43
2017-09-26T18:49:14.765Z,23.30
2017-09-26T18:51:41.014Z,22.67
2017-09-26T18:54:07.699Z,17.87
2017-09-26T18:56:33.978Z,19.73
2017-09-26T18:59:00.296Z,18.23
2017-09-26T19:01:26.577Z,20.43
2017-09-26T19:03:52.889Z,18.47
2017-09-26T19:06:19.941Z,18.07
2017-09-26T19:08:46.643Z,20.53
2017-09-26T19:11:12.938Z,20.67
2017-09-26T19:13:39.320Z,19.87
2017-09-26T19:16:05.607Z,18.40
2017-09-26T19:18:31.920Z,21.00
2017-09-26T19:20:58.233Z,25.63
2017-09-26T19:23:25.312Z,23.53
2017-09-26T19:25:51.673Z,20.70
2017-09-26T19:28:17.974Z,22.57
2017-09-26T19:30:44.282Z,27.23
2017-09-26T19:33:10.597Z,27.30
2017-09-26T19:35:37.618Z,31.43
2017-09-26T19:38:04.607Z,23.47
2017-09-26T19:40:30.937Z,22.93
2017-09-26T19:42:57.255Z,27.50
2017-09-26T19:45:24.632Z,22.50
2017-09-26T19:47:50.943Z,20.23
2017-09-26T19:50:17.274Z,21.93
2017-09-26T19:52:44.298Z,19.73
2017-09-26T19:55:10.684Z,20.43
2017-09-26T19:57:36.960Z,18.70
2017-09-26T20:00:03.691Z,18.53
2017-09-26T20:02:29.926Z,20.07
2017-09-26T20:04:56.180Z,16.93
2017-09-26T20:07:23.600Z,19.63
2017-09-26T20:09:49.891Z,17.53
2017-09-26T20:12:16.194Z,16.20
2017-09-26T20:14:43.301Z,19.30
2017-09-26T20:17:09.657Z,21.50
2017-09-26T20:19:36.811Z,19.20
2017-09-26T20:22:04.241Z,18.53
2017-09-26T20:24:30.756Z,15.43
2017-09-26T20:26:57.144Z,19.83
2017-09-26T20:29:24.744Z,19.50
2017-09-26T20:31:51.069Z,20.67
2017-09-26T20:34:17.324Z,16.87
2017-09-26T20:36:44.090Z,19.57
2017-09-26T20:39:10.371Z,15.60
2017-09-26T20:41:36.720Z,18.40
2017-09-26T20:44:03.547Z,18.50
2017-09-26T20:46:29.870Z,15.67
2017-09-26T20:48:56.272Z,19.93
2017-09-26T20:51:23.811Z,22.17
2017-09-26T20:53:50.139Z,15.53
2017-09-26T20:56:16.486Z,16.77
2017-09-26T20:58:43.544Z,16.07
2017-09-26T21:01:10.592Z,19.57
2017-09-26T21:03:37.588Z,23.63
2017-09-26T21:06:03.921Z,18.63
2017-09-26T21:08:30.217Z,25.50
2017-09-26T21:10:56.506Z,17.20
2017-09-26T21:13:23.619Z,17.80
2017-09-26T21:15:49.948Z,20.40
2017-09-26T21:18:16.285Z,21.97
2017-09-26T21:20:42.678Z,22.23
2017-09-26T21:23:08.997Z,20.83
2017-09-26T21:25:36.085Z,19.53
2017-09-26T21:28:02.417Z,15.50
2017-09-26T21:30:28.724Z,20.13
2017-09-26T21:32:55.065Z,16.67
2017-09-26T21:35:21.745Z,23.60
2017-09-26T21:37:48.022Z,15.83
2017-09-26T21:40:14.306Z,16.93
2017-09-26T21:42:40.906Z,16.70
2017-09-26T21:45:07.221Z,23.90
2017-09-26T21:47:33.521Z,15.90
2017-09-26T21:50:00.597Z,16.93
2017-09-26T21:52:26.890Z,14.90
2017-09-26T21:54:53.158Z,18.43
2017-09-26T21:57:19.453Z,14.60
2017-09-26T21:59:45.756Z,16.53
2017-09-26T22:02:12.010Z,14.07
2017-09-26T22:04:38.684Z,17.03
2017-09-26T22:07:05.028Z,20.80
2017-09-26T22:09:31.311Z,14.40
2017-09-26T22:11:58.409Z,18.23
2017-09-26T22:14:24.701Z,17.80
2017-09-26T22:16:51.726Z,16.50
2017-09-26T22:19:18.018Z,17.33
2017-09-26T22:21:44.301Z,13.93
2017-09-26T22:24:10.597Z,15.70
2017-09-26T22:26:36.902Z,23.37
2017-09-26T22:29:03.167Z,16.63
2017-09-26T22:31:29.470Z,23.00
2017-09-26T22:33:55.782Z,18.50
2017-09-26T22:36:22.064Z,17.77
2017-09-26T22:38:48.368Z,18.97
2017-09-26T22:41:15.138Z,16.40
2017-09-26T22:43:41.469Z,19.40
2017-09-26T22:46:07.772Z,13.30
2017-09-26T22:48:34.127Z,13.90
2017-09-26T22:51:00.406Z,18.57
2017-09-26T22:53:26.703Z,18.87
2017-09-26T22:55:53.785Z,15.43
2017-09-26T22:58:20.057Z,15.37
2017-09-26T23:00:46.369Z,20.30
2017-09-26T23:03:12.731Z,13.70
2017-09-26T23:05:39.078Z,13.93
2017-09-26T23:08:06.176Z,24.63
2017-09-26T23:10:32.549Z,17.80
2017-09-26T23:12:58.853Z,24.50
2017-09-26T23:15:25.158Z,17.20
2017-09-26T23:17:51.839Z,16.87
2017-09-26T23:20:18.152Z,14.87
2017-09-26T23:22:44.426Z,15.40
2017-09-26T23:25:11.469Z,14.93
2017-09-26T23:27:38.546Z,15.60
2017-09-26T23:30:04.808Z,20.87
2017-09-26T23:32:31.520Z,15.53
2017-09-26T23:34:57.775Z,16.50
2017-09-26T23:37:24.059Z,12.87
2017-09-26T23:39:51.436Z,14.47
2017-09-26T23:42:17.709Z,16.20
2017-09-26T23:44:44.076Z,14.60
2017-09-26T23:47:10.421Z,12.23
2017-09-26T23:49:36.714Z,11.60
2017-09-26T23:52:03.065Z,12.30
2017-09-26T23:54:30.120Z,14.63
2017-09-26T23:56:57.187Z,17.00
